Time;durP1;ratioP1;P1;durP2;ratioP2;P2;SDS_P1;SDS_P2;PMS_P1;PMS_P2;Temp;Humidity;BMP_temperature;BMP_pressure;BME280_temperature;BME280_humidity;BME280_pressure;Samples;Min_cycle;Max_cycle;Signal;HPM_P1;HPM_P2
2022/06/20 00:00:43;;;;;;;18.80;8.63;;;25.90;71.30;;;;;;10496743;28;20275;-79
2022/06/20 00:05:46;;;;;;;15.27;9.40;;;25.80;71.30;;;;;;10500161;28;20213;-79
2022/06/20 00:10:51;;;;;;;9.13;8.30;;;25.80;71.80;;;;;;10483874;28;20196;-79
2022/06/20 00:15:57;;;;;;;9.37;8.47;;;25.70;72.40;;;;;;10454054;28;20212;-78
2022/06/20 00:20:59;;;;;;;18.97;8.80;;;25.70;73.40;;;;;;10475385;28;20247;-78
2022/06/20 00:26:01;;;;;;;8.90;8.13;;;25.70;73.20;;;;;;10473054;22;20299;-81
2022/06/20 00:31:06;;;;;;;9.87;8.80;;;25.60;73.90;;;;;;10408321;28;20216;-81
2022/06/20 00:36:08;;;;;;;14.83;9.90;;;25.60;74.20;;;;;;10409414;28;20244;-81
2022/06/20 00:41:17;;;;;;;9.50;8.53;;;25.50;74.70;;;;;;10418983;28;20221;-81
2022/06/20 00:46:28;;;;;;;13.27;8.57;;;25.40;75.20;;;;;;10433742;28;20223;-80
2022/06/20 00:51:38;;;;;;;8.87;8.17;;;25.40;75.60;;;;;;10442042;28;20205;-81
2022/06/20 00:56:50;;;;;;;10.40;8.70;;;25.40;75.80;;;;;;10427859;28;20229;-81
2022/06/20 01:01:55;;;;;;;10.00;9.00;;;25.40;76.90;;;;;;10437104;28;20768;-81
2022/06/20 01:06:59;;;;;;;10.10;8.63;;;25.50;75.80;;;;;;10433543;28;20706;-81
2022/06/20 01:12:03;;;;;;;24.40;18.53;;;25.60;79.30;;;;;;10410761;28;20194;-80
2022/06/20 01:17:14;;;;;;;19.50;17.90;;;25.30;89.50;;;;;;10388550;28;20231;-80
2022/06/20 01:22:43;;;;;;;22.50;20.30;;;24.60;93.20;;;;;;10424218;28;20572;-81
2022/06/20 01:27:49;;;;;;;22.00;20.03;;;23.90;95.30;;;;;;10400483;28;20236;-80
2022/06/20 01:32:51;;;;;;;22.60;20.70;;;23.40;98.80;;;;;;10440750;28;20204;-80
2022/06/20 01:37:54;;;;;;;22.83;20.63;;;23.10;99.90;;;;;;10434857;28;20221;-80
2022/06/20 01:42:58;;;;;;;22.57;20.60;;;23.00;99.90;;;;;;10415349;28;20202;-80
2022/06/20 01:48:03;;;;;;;22.50;20.10;;;22.80;99.90;;;;;;10416669;28;20205;-80
2022/06/20 01:53:08;;;;;;;20.30;18.33;;;22.80;99.90;;;;;;10408971;28;20222;-80
2022/06/20 01:58:17;;;;;;;18.10;16.73;;;22.70;99.90;;;;;;10446122;28;20204;-80
2022/06/20 02:03:21;;;;;;;14.53;13.23;;;22.60;99.90;;;;;;10434754;28;20955;-80
2022/06/20 02:08:25;;;;;;;17.43;16.00;;;22.50;99.90;;;;;;10449960;28;20205;-81
2022/06/20 02:13:33;;;;;;;18.57;16.37;;;22.50;99.90;;;;;;10457500;28;20226;-81
2022/06/20 02:18:39;;;;;;;20.50;17.23;;;22.50;99.90;;;;;;10433954;28;20225;-79
2022/06/20 02:23:45;;;;;;;17.77;16.37;;;22.50;99.90;;;;;;10431836;28;20225;-79
2022/06/20 02:28:56;;;;;;;16.80;15.33;;;22.50;99.90;;;;;;10432857;28;20205;-79
2022/06/20 02:33:58;;;;;;;15.93;14.43;;;22.60;99.90;;;;;;10437217;28;20275;-78
2022/06/20 02:39:01;;;;;;;18.17;16.47;;;22.60;99.90;;;;;;10429622;28;20201;-79
2022/06/20 02:44:10;;;;;;;16.93;15.17;;;22.50;99.90;;;;;;10434540;28;20217;-78
2022/06/20 02:49:14;;;;;;;16.47;15.33;;;22.40;99.90;;;;;;10451362;28;20218;-79
2022/06/20 02:54:18;;;;;;;19.80;17.90;;;22.20;99.90;;;;;;10435166;28;20319;-79
2022/06/20 02:59:32;;;;;;;23.07;19.50;;;22.10;99.90;;;;;;10429798;28;20206;-79
2022/06/20 03:04:40;;;;;;;22.80;20.83;;;21.80;99.90;;;;;;10442760;28;20773;-79
2022/06/20 03:09:46;;;;;;;22.93;20.53;;;21.60;99.90;;;;;;10451027;28;20221;-78
2022/06/20 03:14:53;;;;;;;22.20;20.33;;;21.50;99.90;;;;;;10453204;28;20231;-79
2022/06/20 03:19:59;;;;;;;22.87;19.70;;;21.50;99.90;;;;;;10421113;28;20192;-79
2022/06/20 03:25:01;;;;;;;21.00;19.10;;;21.50;99.90;;;;;;10437757;28;20424;-78
2022/06/20 03:30:19;;;;;;;24.00;20.30;;;21.60;99.90;;;;;;10428527;28;20220;-78
2022/06/20 03:35:23;;;;;;;21.60;19.73;;;21.60;99.90;;;;;;10431310;28;20224;-78
2022/06/20 03:40:25;;;;;;;20.00;18.00;;;21.60;99.90;;;;;;10436646;28;20208;-78
2022/06/20 03:45:33;;;;;;;24.40;21.53;;;21.50;99.90;;;;;;10438503;28;20703;-78
2022/06/20 03:50:39;;;;;;;26.40;23.80;;;21.60;99.90;;;;;;10433318;28;20220;-78
2022/06/20 03:55:47;;;;;;;26.37;23.67;;;21.60;99.90;;;;;;10445725;28;20217;-78
2022/06/20 04:00:55;;;;;;;23.70;21.47;;;21.60;99.90;;;;;;10445044;28;20211;-78
2022/06/20 04:06:02;;;;;;;25.40;22.80;;;21.50;99.90;;;;;;10448096;28;20220;-78
2022/06/20 04:11:06;;;;;;;23.33;21.10;;;21.50;99.90;;;;;;10430209;28;20300;-78
2022/06/20 04:16:14;;;;;;;24.03;21.50;;;21.50;99.90;;;;;;10440626;28;20221;-78
2022/06/20 04:21:22;;;;;;;23.60;21.43;;;21.50;99.90;;;;;;10424637;28;20205;-77
2022/06/20 04:26:30;;;;;;;23.60;21.13;;;21.60;99.90;;;;;;10412771;28;21555;-79
2022/06/20 04:31:40;;;;;;;24.27;21.20;;;21.50;99.90;;;;;;10422074;28;20256;-77
2022/06/20 04:36:50;;;;;;;22.63;20.50;;;21.50;99.90;;;;;;10441297;28;20240;-78
2022/06/20 04:41:59;;;;;;;21.23;19.50;;;21.50;99.90;;;;;;10459749;28;20201;-78
2022/06/20 04:47:15;;;;;;;22.07;19.97;;;21.40;99.90;;;;;;10454590;28;20219;-78
2022/06/20 04:52:20;;;;;;;24.13;20.53;;;21.40;99.90;;;;;;10430819;28;20651;-79
2022/06/20 04:57:24;;;;;;;25.20;20.63;;;21.30;99.90;;;;;;10433625;28;20228;-77
2022/06/20 05:02:28;;;;;;;21.43;19.50;;;21.30;99.90;;;;;;10432011;28;20229;-78
2022/06/20 05:07:34;;;;;;;21.80;20.00;;;21.30;99.90;;;;;;10440416;28;20221;-77
2022/06/20 05:12:42;;;;;;;19.73;17.63;;;21.40;99.90;;;;;;10453368;28;20728;-78
2022/06/20 05:17:48;;;;;;;23.53;21.40;;;21.50;99.90;;;;;;10428442;28;20670;-78
2022/06/20 05:22:58;;;;;;;22.67;20.23;;;21.60;99.90;;;;;;10447572;28;20198;-79
2022/06/20 05:28:03;;;;;;;21.13;19.20;;;21.70;99.90;;;;;;10417160;28;20217;-78
2022/06/20 05:33:15;;;;;;;19.77;18.07;;;21.90;99.90;;;;;;10443002;28;20767;-78
2022/06/20 05:38:23;;;;;;;19.67;17.90;;;22.00;99.90;;;;;;10440704;28;20190;-77
2022/06/20 05:43:27;;;;;;;18.50;16.90;;;22.00;99.90;;;;;;10460818;28;20270;-78
2022/06/20 05:48:35;;;;;;;18.53;16.73;;;21.90;99.90;;;;;;10460577;28;20209;-78
2022/06/20 05:53:41;;;;;;;19.03;17.20;;;21.90;99.90;;;;;;10453644;28;20233;-78
2022/06/20 05:58:45;;;;;;;16.90;15.13;;;21.90;99.90;;;;;;10450882;28;20696;-77
2022/06/20 06:03:57;;;;;;;15.50;14.10;;;21.90;99.90;;;;;;10456918;28;20213;-78
2022/06/20 06:09:02;;;;;;;14.60;13.10;;;21.90;99.90;;;;;;10418406;28;20208;-77
2022/06/20 06:14:12;;;;;;;16.47;14.77;;;22.00;99.90;;;;;;10437503;28;20712;-76
2022/06/20 06:19:22;;;;;;;15.97;14.30;;;22.20;99.90;;;;;;10454597;28;20199;-77
2022/06/20 06:24:26;;;;;;;15.37;14.17;;;22.30;99.90;;;;;;10459634;22;20286;-79
2022/06/20 06:29:36;;;;;;;14.50;12.10;;;22.30;99.90;;;;;;10478860;28;20257;-79
2022/06/20 06:34:44;;;;;;;14.83;13.37;;;22.40;99.90;;;;;;10499216;28;20216;-79
2022/06/20 06:39:53;;;;;;;13.10;10.97;;;22.50;99.90;;;;;;10506166;28;20208;-79
2022/06/20 06:44:59;;;;;;;13.40;12.17;;;22.70;99.90;;;;;;10477945;28;20220;-78
2022/06/20 06:50:15;;;;;;;12.17;11.03;;;22.90;99.90;;;;;;10490415;28;20626;-81
2022/06/20 06:55:28;;;;;;;14.20;11.30;;;23.20;99.90;;;;;;10483189;28;20692;-81
2022/06/20 07:00:34;;;;;;;13.00;11.23;;;23.40;99.90;;;;;;10469704;28;20284;-78
2022/06/20 07:05:42;;;;;;;12.53;11.47;;;23.50;99.90;;;;;;10472562;28;20324;-78
2022/06/20 07:10:49;;;;;;;15.90;11.80;;;23.70;99.90;;;;;;10465995;28;20240;-79
2022/06/20 07:15:56;;;;;;;12.03;10.30;;;23.90;99.90;;;;;;10485715;28;20598;-78
2022/06/20 07:20:59;;;;;;;11.83;9.87;;;24.20;99.90;;;;;;10479314;28;20722;-80
2022/06/20 07:26:02;;;;;;;11.53;9.70;;;24.40;99.90;;;;;;10494505;28;20220;-78
2022/06/20 07:31:10;;;;;;;11.70;10.10;;;24.80;99.90;;;;;;10468731;28;20215;-79
2022/06/20 07:36:18;;;;;;;7.77;6.87;;;25.00;99.90;;;;;;10484944;28;20251;-79
2022/06/20 07:41:25;;;;;;;9.17;7.80;;;25.30;99.90;;;;;;10491923;28;20193;-79
2022/06/20 07:46:33;;;;;;;8.60;6.90;;;25.50;99.90;;;;;;10487438;28;20225;-79
2022/06/20 07:51:41;;;;;;;12.43;8.43;;;25.80;99.90;;;;;;10487365;28;20274;-79
2022/06/20 07:56:50;;;;;;;9.30;6.70;;;26.30;99.90;;;;;;10487664;28;20213;-80
2022/06/20 08:01:58;;;;;;;9.77;7.50;;;26.90;99.90;;;;;;10475122;28;20197;-79
2022/06/20 08:07:06;;;;;;;10.10;6.90;;;27.50;99.90;;;;;;10485689;28;20221;-80
2022/06/20 08:12:16;;;;;;;11.17;6.70;;;28.10;99.90;;;;;;10490293;28;20259;-80
2022/06/20 08:17:18;;;;;;;6.90;6.20;;;28.70;99.90;;;;;;10494126;28;20721;-79
2022/06/20 08:22:25;;;;;;;9.10;6.00;;;29.30;99.90;;;;;;10464311;28;20209;-79
2022/06/20 08:27:34;;;;;;;8.33;5.63;;;29.90;99.90;;;;;;10449680;28;20736;-76
2022/06/20 08:32:45;;;;;;;6.60;6.07;;;30.20;98.50;;;;;;10442323;28;20225;-76
2022/06/20 08:37:53;;;;;;;8.53;5.87;;;30.50;95.50;;;;;;10440406;28;20575;-77
2022/06/20 08:43:29;;;;;;;11.10;6.23;;;30.70;94.10;;;;;;10449469;28;20232;-77
2022/06/20 08:49:14;;;;;;;8.70;5.90;;;31.00;92.10;;;;;;10451012;28;20201;-77
2022/06/20 08:54:58;;;;;;;8.03;5.93;;;31.30;91.60;;;;;;10457068;28;20763;-77
2022/06/20 09:00:11;;;;;;;8.80;6.60;;;31.60;91.50;;;;;;10439659;28;20731;-77
2022/06/20 09:05:42;;;;;;;6.43;5.87;;;31.80;90.00;;;;;;10472259;28;20213;-77
2022/06/20 09:11:00;;;;;;;11.30;5.43;;;32.10;89.10;;;;;;10457224;28;20284;-77
2022/06/20 09:16:13;;;;;;;8.40;6.30;;;32.50;86.80;;;;;;10449154;28;20303;-77
2022/06/20 09:21:25;;;;;;;7.83;5.90;;;32.80;86.00;;;;;;10478993;28;20280;-78
2022/06/20 09:26:33;;;;;;;5.67;5.23;;;33.20;79.30;;;;;;10460957;28;20235;-78
2022/06/20 09:31:59;;;;;;;5.67;5.13;;;33.50;82.00;;;;;;10478792;28;20235;-77
2022/06/20 09:37:15;;;;;;;5.73;5.13;;;34.00;79.70;;;;;;10479566;28;20278;-79
2022/06/20 09:42:27;;;;;;;6.90;5.77;;;34.70;78.60;;;;;;10469061;28;20195;-80
2022/06/20 09:47:39;;;;;;;5.70;5.20;;;35.40;72.30;;;;;;10482342;28;20236;-80
2022/06/20 09:52:51;;;;;;;8.52;5.63;;;36.10;73.60;;;;;;10486619;28;20448;-79
2022/06/20 09:58:01;;;;;;;8.67;5.70;;;36.70;66.90;;;;;;10455261;28;20223;-79
2022/06/20 10:03:14;;;;;;;6.47;5.80;;;36.00;66.70;;;;;;10476948;28;20204;-79
2022/06/20 10:08:28;;;;;;;9.00;5.30;;;35.00;70.00;;;;;;10466542;28;20679;-78
2022/06/20 10:13:39;;;;;;;6.73;5.50;;;34.20;70.20;;;;;;10465898;28;20648;-79
2022/06/20 10:18:48;;;;;;;5.50;5.00;;;34.90;68.50;;;;;;10480672;28;20239;-78
2022/06/20 10:24:10;;;;;;;8.23;5.30;;;35.70;65.60;;;;;;10468226;28;20232;-79
2022/06/20 10:29:22;;;;;;;5.97;5.43;;;35.40;63.10;;;;;;10458640;28;20240;-79
2022/06/20 10:34:37;;;;;;;7.17;6.40;;;34.10;67.20;;;;;;10476059;28;20228;-80
2022/06/20 10:39:45;;;;;;;10.40;6.03;;;33.30;70.20;;;;;;10486181;28;20224;-79
2022/06/20 10:45:03;;;;;;;6.97;6.27;;;32.70;69.60;;;;;;10463864;28;20224;-80
2022/06/20 10:50:21;;;;;;;6.63;4.97;;;32.20;72.50;;;;;;10487038;28;20505;-79
2022/06/20 10:55:38;;;;;;;5.30;4.87;;;31.70;72.80;;;;;;10497715;28;20244;-79
2022/06/20 11:00:47;;;;;;;6.17;5.57;;;31.30;71.10;;;;;;10489549;28;20283;-79
2022/06/20 11:05:58;;;;;;;5.73;5.10;;;31.00;70.30;;;;;;10488361;28;20212;-80
2022/06/20 11:11:11;;;;;;;5.13;4.73;;;30.70;71.60;;;;;;10496739;28;20201;-78
2022/06/20 11:16:24;;;;;;;7.43;5.53;;;30.60;72.20;;;;;;10473881;28;20217;-80
2022/06/20 11:21:34;;;;;;;6.00;5.40;;;30.40;72.40;;;;;;10499695;28;20224;-80
2022/06/20 11:26:44;;;;;;;6.10;5.50;;;30.20;73.20;;;;;;10499154;28;20228;-76
2022/06/20 11:31:53;;;;;;;8.43;5.93;;;29.90;72.90;;;;;;10487329;28;20719;-78
2022/06/20 11:37:11;;;;;;;7.87;6.13;;;29.70;75.20;;;;;;10464674;28;20654;-79
2022/06/20 11:42:39;;;;;;;9.37;5.93;;;29.50;74.90;;;;;;10463183;28;20223;-81
2022/06/20 11:47:58;;;;;;;8.70;6.10;;;29.20;74.00;;;;;;10445304;28;20323;-81
2022/06/20 11:53:14;;;;;;;7.20;6.20;;;29.00;77.50;;;;;;10465525;28;20311;-80
2022/06/20 11:58:25;;;;;;;9.70;5.70;;;28.70;77.90;;;;;;10463217;28;20232;-80
2022/06/20 12:03:35;;;;;;;9.47;6.50;;;28.70;77.90;;;;;;10467898;28;20248;-80
2022/06/20 12:08:53;;;;;;;5.80;5.10;;;28.90;77.90;;;;;;10464124;28;20240;-80
2022/06/20 12:14:02;;;;;;;5.93;4.67;;;29.00;76.80;;;;;;10473964;28;20228;-81
2022/06/20 12:24:43;;;;;;;5.30;4.73;;;29.10;75.60;;;;;;10507968;22;20243;-80
2022/06/20 12:29:46;;;;;;;4.27;3.87;;;29.00;77.00;;;;;;10493765;28;20188;-82
2022/06/20 12:34:56;;;;;;;3.13;2.80;;;29.00;73.30;;;;;;10478553;28;20716;-84
2022/06/20 12:40:06;;;;;;;4.63;4.30;;;28.80;73.90;;;;;;10473565;28;20239;-83
2022/06/20 12:45:28;;;;;;;7.10;5.87;;;28.90;76.60;;;;;;10464907;28;20216;-83
2022/06/20 12:50:38;;;;;;;8.20;5.40;;;28.90;78.80;;;;;;10466063;28;20652;-84
2022/06/20 12:55:59;;;;;;;13.00;6.20;;;29.00;76.70;;;;;;10486172;28;20213;-83
2022/06/20 13:01:09;;;;;;;8.17;6.63;;;28.90;76.00;;;;;;10464290;28;20192;-81
2022/06/20 13:06:40;;;;;;;5.50;5.00;;;28.70;77.80;;;;;;10483568;28;20598;-83
2022/06/20 13:11:53;;;;;;;5.63;5.23;;;28.60;76.50;;;;;;10468608;28;20217;-83
2022/06/20 13:17:08;;;;;;;8.43;5.83;;;28.40;77.70;;;;;;10498118;28;20224;-83
2022/06/20 13:22:20;;;;;;;7.33;5.30;;;28.30;79.30;;;;;;10459042;28;20277;-83
2022/06/20 13:27:32;;;;;;;6.33;5.70;;;28.30;79.80;;;;;;10466127;28;20251;-83
2022/06/20 13:32:40;;;;;;;6.23;5.17;;;28.20;79.10;;;;;;10478392;28;20292;-81
2022/06/20 13:37:52;;;;;;;6.03;5.43;;;28.00;79.40;;;;;;10458856;28;20259;-81
2022/06/20 13:43:16;;;;;;;7.50;5.77;;;27.80;79.80;;;;;;10490952;28;20196;-84
2022/06/20 13:48:23;;;;;;;7.03;5.37;;;27.50;81.20;;;;;;10461200;28;20256;-83
2022/06/20 13:53:31;;;;;;;5.43;4.77;;;27.40;81.70;;;;;;10474227;28;20236;-82
2022/06/20 13:58:40;;;;;;;5.50;5.10;;;27.30;83.40;;;;;;10501626;28;20221;-84
2022/06/20 14:03:47;;;;;;;8.50;5.50;;;27.10;83.20;;;;;;10508986;28;20196;-83
2022/06/20 14:08:53;;;;;;;5.70;5.20;;;26.90;82.90;;;;;;10451619;28;20204;-82
2022/06/20 14:13:57;;;;;;;5.00;4.60;;;26.60;83.90;;;;;;10466727;28;20219;-83
2022/06/20 14:19:02;;;;;;;4.87;4.40;;;26.50;83.90;;;;;;10461577;28;20194;-84
2022/06/20 14:24:06;;;;;;;5.80;4.40;;;26.30;86.70;;;;;;10468042;28;20193;-82
2022/06/20 14:29:19;;;;;;;4.80;4.40;;;26.20;85.70;;;;;;10457381;28;20627;-82
2022/06/20 14:34:26;;;;;;;4.70;4.20;;;26.30;84.80;;;;;;10506419;28;20311;-84
2022/06/20 14:39:40;;;;;;;5.30;4.60;;;26.40;85.70;;;;;;10505654;28;20201;-81
2022/06/20 14:44:49;;;;;;;8.33;4.90;;;26.40;85.70;;;;;;10481297;28;20213;-84
2022/06/20 14:49:57;;;;;;;4.30;3.90;;;26.40;86.30;;;;;;10459126;28;20737;-84
2022/06/20 14:55:04;;;;;;;4.57;4.17;;;26.40;86.90;;;;;;10449233;28;20641;-81
2022/06/20 15:00:19;;;;;;;5.00;4.23;;;26.40;86.80;;;;;;10456762;28;20196;-84
2022/06/20 15:05:35;;;;;;;5.87;4.90;;;26.40;86.60;;;;;;10455902;28;20726;-82
2022/06/20 15:10:46;;;;;;;4.60;4.30;;;26.40;86.00;;;;;;10498776;28;20648;-82
2022/06/20 15:15:52;;;;;;;4.90;4.20;;;26.50;86.60;;;;;;10483416;28;20279;-82
2022/06/20 15:21:03;;;;;;;5.93;4.30;;;26.40;86.70;;;;;;10465854;28;20223;-83
2022/06/20 15:26:16;;;;;;;7.00;4.83;;;26.30;86.70;;;;;;10476754;28;20228;-83
2022/06/20 15:31:30;;;;;;;4.53;4.20;;;26.30;86.50;;;;;;10461890;28;20258;-82
2022/06/20 15:36:40;;;;;;;5.03;4.13;;;26.20;86.90;;;;;;10473015;28;20228;-84
2022/06/20 15:41:55;;;;;;;4.47;4.17;;;26.20;85.70;;;;;;10488873;28;20212;-80
2022/06/20 15:47:09;;;;;;;6.97;5.10;;;26.30;86.20;;;;;;10484650;28;20213;-83
2022/06/20 15:52:32;;;;;;;5.03;4.60;;;26.40;85.60;;;;;;10484192;28;20215;-81
2022/06/20 16:04:42;;;;;;;3.90;3.63;;;26.30;84.30;;;;;;10550071;22;20726;-81
2022/06/20 16:22:53;;;;;;;13.17;12.00;;;26.10;85.30;;;;;;10141685;29;20289;-82
2022/06/20 16:28:06;;;;;;;5.80;5.40;;;26.00;86.60;;;;;;10491371;22;20218;-80
2022/06/20 16:33:18;;;;;;;11.43;10.40;;;26.00;87.60;;;;;;10427498;28;20217;-82
2022/06/20 16:38:24;;;;;;;7.60;7.00;;;25.80;87.20;;;;;;10442203;28;20225;-82
2022/06/20 16:43:35;;;;;;;5.17;4.73;;;25.80;88.40;;;;;;10427645;28;20194;-82
2022/06/20 16:48:51;;;;;;;4.97;4.60;;;25.70;87.90;;;;;;10430122;28;20279;-82
2022/06/20 16:54:00;;;;;;;7.37;5.20;;;25.70;87.30;;;;;;10431020;28;20209;-83
2022/06/20 16:59:11;;;;;;;4.53;4.27;;;25.70;87.70;;;;;;10423917;28;20205;-82
2022/06/20 17:04:20;;;;;;;5.50;4.90;;;25.60;86.80;;;;;;10408200;28;20267;-81
2022/06/20 17:09:34;;;;;;;5.30;4.80;;;25.60;86.20;;;;;;10449212;28;20221;-82
2022/06/20 17:15:02;;;;;;;5.27;4.70;;;25.50;87.40;;;;;;10424442;28;20221;-83
2022/06/20 17:20:11;;;;;;;4.40;4.10;;;25.30;87.10;;;;;;10435024;28;20208;-84
2022/06/20 17:25:33;;;;;;;4.50;4.20;;;25.10;87.00;;;;;;10426506;28;20312;-84
2022/06/20 17:30:43;;;;;;;4.20;3.90;;;25.00;86.00;;;;;;10444601;28;20227;-83
2022/06/20 17:35:52;;;;;;;4.53;4.23;;;24.90;86.80;;;;;;10420936;28;20234;-84
2022/06/20 17:41:01;;;;;;;4.03;3.77;;;24.80;87.40;;;;;;10440587;28;20198;-83
2022/06/20 17:46:07;;;;;;;4.53;4.23;;;24.80;86.60;;;;;;10422271;28;20243;-84
2022/06/20 17:51:21;;;;;;;4.27;3.93;;;24.80;85.70;;;;;;10443896;28;20247;-84
2022/06/20 17:56:32;;;;;;;4.10;3.73;;;24.80;84.60;;;;;;10409670;28;20234;-84
2022/06/20 18:01:38;;;;;;;3.80;3.60;;;24.70;83.90;;;;;;10402460;28;20206;-83
2022/06/20 18:06:43;;;;;;;3.90;3.70;;;24.60;84.20;;;;;;10443500;28;20220;-84
2022/06/20 18:11:53;;;;;;;4.60;4.17;;;24.60;85.30;;;;;;10452518;28;20197;-83
2022/06/20 18:17:01;;;;;;;3.77;3.57;;;24.50;87.30;;;;;;10456832;28;20229;-84
2022/06/20 18:22:10;;;;;;;3.70;3.50;;;24.50;84.50;;;;;;10427884;28;20202;-84
2022/06/20 18:27:19;;;;;;;3.73;3.47;;;24.40;86.00;;;;;;10462628;22;20228;-80
2022/06/20 18:32:24;;;;;;;4.10;3.80;;;24.30;86.00;;;;;;10471798;28;20205;-80
2022/06/20 18:37:29;;;;;;;3.60;3.40;;;24.30;88.60;;;;;;10466105;28;20266;-80
2022/06/20 18:42:38;;;;;;;3.00;2.80;;;24.30;86.00;;;;;;10442719;28;20599;-79
2022/06/20 18:47:53;;;;;;;3.50;3.30;;;24.20;85.70;;;;;;10474387;28;20216;-78
2022/06/20 18:53:08;;;;;;;3.13;3.00;;;24.10;86.60;;;;;;10466152;28;20223;-80
2022/06/20 18:58:35;;;;;;;3.90;3.60;;;24.00;88.70;;;;;;10490035;28;20227;-80
2022/06/20 19:03:59;;;;;;;2.97;2.87;;;23.90;85.40;;;;;;10480202;28;20319;-80
2022/06/20 19:09:16;;;;;;;3.33;3.13;;;23.90;86.30;;;;;;10471653;28;20221;-80
2022/06/20 19:14:42;;;;;;;2.83;2.70;;;23.80;85.50;;;;;;10477183;28;20216;-81
2022/06/20 19:20:13;;;;;;;3.37;3.17;;;23.60;85.90;;;;;;10478918;28;20289;-81
2022/06/20 19:25:20;;;;;;;3.10;2.90;;;23.60;85.80;;;;;;10478618;28;20239;-81
2022/06/20 19:30:38;;;;;;;4.80;4.00;;;23.40;87.20;;;;;;10492450;28;20660;-81
2022/06/20 19:35:43;;;;;;;3.60;3.30;;;23.30;85.80;;;;;;10475305;28;20251;-80
2022/06/20 19:40:55;;;;;;;2.60;2.40;;;23.20;87.00;;;;;;10462704;28;20206;-80
2022/06/20 19:45:59;;;;;;;3.77;3.53;;;23.10;87.00;;;;;;10468564;28;20555;-80
2022/06/20 19:51:12;;;;;;;2.80;2.70;;;23.00;86.50;;;;;;10472701;28;20204;-79
2022/06/20 19:56:14;;;;;;;3.30;3.10;;;23.00;88.80;;;;;;10497259;28;20655;-80
2022/06/20 20:01:41;;;;;;;4.73;3.03;;;23.00;86.00;;;;;;10456154;28;20722;-79
2022/06/20 20:07:16;;;;;;;3.07;2.87;;;23.00;85.20;;;;;;10492165;28;20241;-80
2022/06/20 20:12:19;;;;;;;2.73;2.63;;;22.90;84.10;;;;;;10454739;28;20269;-79
2022/06/20 20:17:23;;;;;;;3.37;2.90;;;22.90;82.80;;;;;;10467282;28;20858;-79
2022/06/20 20:22:30;;;;;;;4.40;4.00;;;22.80;83.10;;;;;;10455377;28;20269;-79
2022/06/20 20:27:42;;;;;;;3.53;3.33;;;22.70;83.10;;;;;;10468492;28;20320;-80
2022/06/20 20:33:31;;;;;;;2.90;2.70;;;22.60;86.10;;;;;;10440989;28;20259;-80
2022/06/20 20:39:08;;;;;;;2.60;2.40;;;22.50;84.70;;;;;;10463506;28;20284;-79
2022/06/20 20:44:34;;;;;;;3.30;3.10;;;22.40;86.50;;;;;;10476366;28;20206;-81
2022/06/20 20:49:43;;;;;;;3.10;2.90;;;22.30;85.80;;;;;;10491577;28;20200;-81
2022/06/20 20:54:46;;;;;;;2.40;2.30;;;22.10;86.90;;;;;;10465952;28;20234;-81
2022/06/20 20:59:54;;;;;;;2.83;2.63;;;22.10;86.60;;;;;;10473744;28;20237;-79
2022/06/20 21:05:00;;;;;;;2.60;2.50;;;22.00;88.60;;;;;;10464973;28;20228;-80
2022/06/20 21:10:06;;;;;;;3.23;2.60;;;21.90;85.40;;;;;;10469754;28;20229;-81
2022/06/20 21:15:14;;;;;;;2.70;2.60;;;21.80;82.40;;;;;;10440139;28;20252;-80
2022/06/20 21:20:18;;;;;;;2.50;2.30;;;21.70;83.50;;;;;;10482292;28;20200;-80
2022/06/20 21:25:22;;;;;;;2.60;2.50;;;21.60;82.50;;;;;;10459403;28;20251;-80
2022/06/20 21:30:27;;;;;;;3.53;2.27;;;21.50;85.50;;;;;;10462075;28;20205;-79
2022/06/20 21:35:30;;;;;;;2.47;2.37;;;21.40;83.60;;;;;;10485075;28;20715;-80
2022/06/20 21:40:35;;;;;;;4.73;2.60;;;21.30;90.70;;;;;;10496917;28;20202;-80
2022/06/20 21:45:39;;;;;;;1.93;1.83;;;21.20;86.60;;;;;;10467985;28;20209;-79
2022/06/20 21:50:47;;;;;;;1.90;1.80;;;21.10;90.00;;;;;;10471351;28;20200;-79
2022/06/20 21:55:51;;;;;;;2.00;1.87;;;21.00;87.00;;;;;;10504971;28;20225;-80
2022/06/20 22:00:53;;;;;;;2.93;1.80;;;21.00;85.00;;;;;;10483084;28;20201;-80
2022/06/20 22:05:57;;;;;;;1.80;1.60;;;20.90;79.90;;;;;;10490383;28;20224;-80
2022/06/20 22:11:02;;;;;;;2.20;2.10;;;20.90;83.60;;;;;;10485095;28;20200;-79
2022/06/20 22:16:04;;;;;;;2.17;2.00;;;20.80;80.90;;;;;;10492234;28;20700;-79
2022/06/20 22:21:17;;;;;;;5.13;4.70;;;20.80;81.10;;;;;;10466202;28;20205;-80
2022/06/20 22:26:23;;;;;;;3.20;2.73;;;20.80;81.00;;;;;;10445849;28;20307;-79
2022/06/20 22:31:28;;;;;;;2.20;2.10;;;20.70;83.80;;;;;;10448294;28;20766;-79
2022/06/20 22:36:35;;;;;;;2.30;2.10;;;20.70;81.60;;;;;;10466998;28;20236;-79
2022/06/20 22:41:39;;;;;;;2.13;2.00;;;20.60;85.00;;;;;;10461713;28;20212;-80
2022/06/20 22:46:51;;;;;;;1.90;1.80;;;20.60;86.50;;;;;;10478088;28;20228;-80
2022/06/20 22:51:57;;;;;;;2.50;2.30;;;20.60;82.70;;;;;;10469129;28;20201;-79
2022/06/20 22:57:03;;;;;;;2.43;1.90;;;20.50;88.50;;;;;;10478491;28;20277;-80
2022/06/20 23:02:11;;;;;;;2.50;2.40;;;20.50;87.00;;;;;;10451446;28;20567;-79
2022/06/20 23:07:15;;;;;;;3.10;2.20;;;20.50;86.00;;;;;;10454332;28;20224;-80
2022/06/20 23:12:19;;;;;;;2.53;2.43;;;20.40;87.50;;;;;;10456585;28;20676;-79
2022/06/20 23:22:49;;;;;;;2.57;2.37;;;20.40;85.80;;;;;;10474597;28;20283;-79
2022/06/20 23:27:52;;;;;;;2.13;2.00;;;20.40;88.20;;;;;;10482054;28;20224;-80
2022/06/20 23:32:55;;;;;;;2.13;2.03;;;20.30;85.00;;;;;;10462502;28;20190;-80
2022/06/20 23:38:04;;;;;;;2.10;2.00;;;20.20;88.20;;;;;;10468187;28;20602;-79
2022/06/20 23:43:08;;;;;;;3.40;2.40;;;20.10;87.80;;;;;;10447954;28;20208;-80
2022/06/20 23:48:15;;;;;;;2.27;2.17;;;20.10;88.20;;;;;;10472304;28;20213;-80
2022/06/20 23:53:19;;;;;;;2.20;2.10;;;20.10;88.50;;;;;;10472029;28;20189;-78
2022/06/20 23:58:25;;;;;;;2.33;2.23;;;20.00;87.50;;;;;;10459068;28;20217;-78
